Time;durP1;ratioP1;P1;durP2;ratioP2;P2;SDS_P1;SDS_P2;PMS_P1;PMS_P2;Temp;Humidity;BMP_temperature;BMP_pressure;BME280_temperature;BME280_humidity;BME280_pressure;Samples;Min_cycle;Max_cycle;Signal;HPM_P1;HPM_P2
2023/07/03 00:00:12;;;;;;;10.68;6.60;;;28.10;99.90;;;;;;4961065;28;20038;-58
2023/07/03 00:02:39;;;;;;;11.30;7.35;;;28.00;99.90;;;;;;4952386;28;20134;-58
2023/07/03 00:05:09;;;;;;;7.93;6.00;;;28.00;99.90;;;;;;4951216;28;20038;-58
2023/07/03 00:07:39;;;;;;;9.00;6.28;;;27.90;99.90;;;;;;4958268;28;20481;-57
2023/07/03 00:10:05;;;;;;;11.50;6.13;;;27.90;99.90;;;;;;4952634;29;20488;-56
2023/07/03 00:12:31;;;;;;;8.50;6.13;;;27.80;99.90;;;;;;4938344;29;20110;-56
2023/07/03 00:14:57;;;;;;;11.20;7.32;;;27.80;99.90;;;;;;4936495;29;20386;-56
2023/07/03 00:17:23;;;;;;;13.27;6.38;;;27.80;99.90;;;;;;4936512;29;20079;-55
2023/07/03 00:19:49;;;;;;;10.45;6.32;;;27.80;99.90;;;;;;4940330;29;20427;-57
2023/07/03 00:22:15;;;;;;;9.93;6.40;;;27.70;99.90;;;;;;4955599;29;20109;-56
2023/07/03 00:24:41;;;;;;;10.23;6.50;;;27.70;99.90;;;;;;4954259;29;20078;-56
2023/07/03 00:27:06;;;;;;;7.90;6.03;;;27.70;99.90;;;;;;4955296;29;20035;-56
2023/07/03 00:29:33;;;;;;;15.43;6.70;;;27.60;99.90;;;;;;4954215;29;20396;-56
2023/07/03 00:32:00;;;;;;;10.52;6.65;;;27.70;99.90;;;;;;4955399;28;20032;-57
2023/07/03 00:34:26;;;;;;;9.38;6.65;;;27.60;99.90;;;;;;4955583;28;20023;-56
2023/07/03 00:36:53;;;;;;;10.13;6.55;;;27.60;99.90;;;;;;4955266;28;20436;-57
2023/07/03 00:39:19;;;;;;;8.40;5.88;;;27.60;99.90;;;;;;4955364;28;20019;-57
2023/07/03 00:41:45;;;;;;;8.77;6.05;;;27.60;99.90;;;;;;4955438;28;20032;-59
2023/07/03 00:44:16;;;;;;;12.13;7.18;;;27.60;99.90;;;;;;4955457;28;20097;-58
2023/07/03 00:46:45;;;;;;;8.90;6.80;;;27.60;99.90;;;;;;4953832;29;20034;-57
2023/07/03 00:49:11;;;;;;;9.85;6.80;;;27.60;99.90;;;;;;4952862;29;20047;-57
2023/07/03 00:51:47;;;;;;;9.67;6.70;;;27.60;99.90;;;;;;4955090;28;20030;-58
2023/07/03 00:54:13;;;;;;;12.48;6.60;;;27.70;99.90;;;;;;4942548;28;20021;-57
2023/07/03 00:56:39;;;;;;;11.45;8.13;;;27.60;99.90;;;;;;4955055;28;20035;-57
2023/07/03 00:59:05;;;;;;;12.57;7.40;;;27.70;99.90;;;;;;4954760;28;20388;-56
2023/07/03 01:01:46;;;;;;;12.32;7.32;;;27.70;99.90;;;;;;4953170;23;20056;-50
2023/07/03 01:04:17;;;;;;;11.07;7.38;;;27.70;99.90;;;;;;4924933;29;20388;-50
2023/07/03 01:06:57;;;;;;;11.55;8.75;;;27.70;99.90;;;;;;4935658;29;20055;-50
2023/07/03 01:09:27;;;;;;;19.77;12.63;;;27.70;99.90;;;;;;4935799;29;20385;-51
2023/07/03 01:11:54;;;;;;;13.50;8.57;;;27.80;99.90;;;;;;4935512;29;20012;-49
2023/07/03 01:14:22;;;;;;;11.40;7.88;;;27.80;99.90;;;;;;4935621;29;20559;-50
2023/07/03 01:16:49;;;;;;;12.23;7.97;;;27.80;99.90;;;;;;4934348;29;20043;-50
2023/07/03 01:19:22;;;;;;;14.43;8.98;;;27.70;99.90;;;;;;4934467;29;20028;-50
2023/07/03 01:21:58;;;;;;;11.45;7.85;;;27.80;99.90;;;;;;4935458;29;20024;-50
2023/07/03 01:25:05;;;;;;;13.32;7.88;;;27.80;99.90;;;;;;4935329;29;20350;-51
2023/07/03 01:27:34;;;;;;;11.23;7.85;;;27.80;99.90;;;;;;4876716;29;20065;-50
2023/07/03 01:30:00;;;;;;;11.23;6.68;;;27.80;99.90;;;;;;4876740;29;20033;-50
2023/07/03 01:32:30;;;;;;;10.73;7.30;;;27.80;99.90;;;;;;4906780;29;20506;-50
2023/07/03 01:34:57;;;;;;;9.18;7.13;;;27.80;99.90;;;;;;4933767;29;20031;-49
2023/07/03 01:37:28;;;;;;;13.13;6.70;;;27.80;99.90;;;;;;4935187;29;20067;-49
2023/07/03 01:39:55;;;;;;;11.65;7.80;;;27.80;99.90;;;;;;4935011;29;20540;-51
2023/07/03 01:42:23;;;;;;;10.80;7.32;;;27.80;99.90;;;;;;4935045;29;20067;-50
2023/07/03 01:44:49;;;;;;;11.98;6.88;;;27.80;99.90;;;;;;4935338;29;20023;-50
2023/07/03 01:47:15;;;;;;;13.88;7.45;;;27.80;99.90;;;;;;4934924;29;20027;-50
2023/07/03 01:49:41;;;;;;;8.60;6.93;;;27.80;99.90;;;;;;4933635;29;20071;-51
2023/07/03 01:52:21;;;;;;;9.35;6.60;;;27.80;99.90;;;;;;4934943;29;20389;-50
2023/07/03 01:55:05;;;;;;;11.27;7.03;;;27.80;99.90;;;;;;4935292;29;20028;-51
2023/07/03 01:58:03;;;;;;;8.13;6.68;;;27.80;99.90;;;;;;4934818;29;20035;-51
2023/07/03 02:00:46;;;;;;;9.43;7.10;;;27.80;99.90;;;;;;4922473;23;20039;-55
2023/07/03 02:03:31;;;;;;;9.10;6.70;;;27.80;99.90;;;;;;4934914;29;20485;-56
2023/07/03 02:05:58;;;;;;;8.75;6.35;;;27.80;99.90;;;;;;4933449;29;20050;-56
2023/07/03 02:08:25;;;;;;;6.75;5.60;;;27.70;99.90;;;;;;4934692;29;20031;-56
2023/07/03 02:10:52;;;;;;;8.23;5.70;;;27.70;99.90;;;;;;4935013;29;20020;-55
2023/07/03 02:13:18;;;;;;;8.48;5.70;;;27.70;99.90;;;;;;4936694;29;20034;-55
2023/07/03 02:15:44;;;;;;;7.28;6.13;;;27.70;99.90;;;;;;4938734;29;20028;-55
2023/07/03 02:18:17;;;;;;;8.07;5.53;;;27.70;99.90;;;;;;4938662;29;20421;-57
2023/07/03 02:20:49;;;;;;;10.32;5.68;;;27.70;99.90;;;;;;4938588;29;20062;-56
2023/07/03 02:23:15;;;;;;;8.95;5.75;;;27.70;99.90;;;;;;4938644;29;20079;-56
2023/07/03 02:25:41;;;;;;;8.23;5.93;;;27.70;99.90;;;;;;4938476;29;20028;-56
2023/07/03 02:28:07;;;;;;;7.78;5.40;;;27.70;99.90;;;;;;4938311;29;20043;-56
2023/07/03 02:30:33;;;;;;;7.43;5.82;;;27.60;99.90;;;;;;4938330;29;20020;-56
2023/07/03 02:32:59;;;;;;;8.23;5.18;;;27.70;99.90;;;;;;4937328;29;20028;-56
2023/07/03 02:35:24;;;;;;;8.32;6.57;;;27.70;99.90;;;;;;4938346;29;20016;-56
2023/07/03 02:37:50;;;;;;;8.57;5.45;;;27.70;99.90;;;;;;4938635;29;20306;-56
2023/07/03 02:40:16;;;;;;;12.70;6.28;;;27.60;99.90;;;;;;4938324;29;20475;-56
2023/07/03 02:42:42;;;;;;;8.10;5.90;;;27.70;99.90;;;;;;4938355;29;20024;-56
2023/07/03 02:45:09;;;;;;;7.38;5.65;;;27.60;99.90;;;;;;4938333;29;20032;-56
2023/07/03 02:47:38;;;;;;;8.27;6.68;;;27.60;99.90;;;;;;4938158;29;20023;-56
2023/07/03 02:50:06;;;;;;;11.45;7.32;;;27.60;99.90;;;;;;4938341;29;20071;-55
2023/07/03 02:52:31;;;;;;;;;;;27.60;99.90;;;;;;4938307;29;20487;-56
2023/07/03 02:54:57;;;;;;;11.45;6.97;;;27.60;99.90;;;;;;4938093;29;19907;-56
2023/07/03 02:57:23;;;;;;;11.30;6.97;;;27.70;99.90;;;;;;4936798;29;20032;-56
2023/07/03 02:59:49;;;;;;;10.38;6.82;;;27.60;99.90;;;;;;4952616;29;20027;-56
2023/07/03 03:02:14;;;;;;;9.90;7.03;;;27.60;99.90;;;;;;4961901;23;20058;-50
2023/07/03 03:04:40;;;;;;;9.35;6.13;;;27.60;99.90;;;;;;4946974;29;20027;-50
2023/07/03 03:07:06;;;;;;;11.48;5.80;;;27.60;99.90;;;;;;4941646;29;20024;-50
2023/07/03 03:09:32;;;;;;;7.65;5.95;;;27.60;99.90;;;;;;4937826;29;20119;-50
2023/07/03 03:11:58;;;;;;;8.15;5.70;;;27.60;99.90;;;;;;4937930;29;20034;-51
2023/07/03 03:14:24;;;;;;;13.80;6.30;;;27.60;99.90;;;;;;4937921;29;20028;-50
2023/07/03 03:16:50;;;;;;;14.27;6.15;;;27.60;99.90;;;;;;4937643;29;20086;-50
2023/07/03 03:19:16;;;;;;;8.50;6.03;;;27.60;99.90;;;;;;4955611;29;20069;-50
2023/07/03 03:21:41;;;;;;;8.80;5.47;;;27.60;99.90;;;;;;4942705;28;20055;-50
2023/07/03 03:24:07;;;;;;;8.32;6.28;;;27.60;99.90;;;;;;4949798;29;20076;-50
2023/07/03 03:26:33;;;;;;;13.02;7.38;;;27.60;99.90;;;;;;4936287;29;20039;-49
2023/07/03 03:28:59;;;;;;;9.68;5.57;;;27.60;99.90;;;;;;4941041;29;20122;-49
2023/07/03 03:31:24;;;;;;;9.65;6.07;;;27.60;99.90;;;;;;4946535;28;20023;-49
2023/07/03 03:33:50;;;;;;;10.73;5.72;;;27.60;99.90;;;;;;4953678;29;20030;-49
2023/07/03 03:36:16;;;;;;;8.55;5.68;;;27.50;99.90;;;;;;4947935;28;20417;-50
2023/07/03 03:38:42;;;;;;;8.10;5.30;;;27.50;99.90;;;;;;4950024;29;20482;-50
2023/07/03 03:41:08;;;;;;;8.05;5.15;;;27.50;99.90;;;;;;4937561;29;20027;-50
2023/07/03 03:43:34;;;;;;;9.85;5.68;;;27.50;99.90;;;;;;4949348;29;20079;-50
2023/07/03 03:46:01;;;;;;;9.63;6.00;;;27.50;99.90;;;;;;4956458;28;20098;-49
2023/07/03 03:48:29;;;;;;;9.15;5.65;;;27.50;99.90;;;;;;4945026;28;20499;-49
2023/07/03 03:50:55;;;;;;;9.93;5.72;;;27.50;99.90;;;;;;4942293;29;20037;-49
2023/07/03 03:53:21;;;;;;;8.45;6.03;;;27.50;99.90;;;;;;4956287;28;20484;-49
2023/07/03 03:55:52;;;;;;;10.35;5.82;;;27.50;99.90;;;;;;4943417;28;20682;-49
2023/07/03 03:58:19;;;;;;;10.85;6.35;;;27.50;99.90;;;;;;4944419;28;20059;-49
2023/07/03 04:00:45;;;;;;;8.38;5.53;;;27.50;99.90;;;;;;4952858;29;20086;-49
2023/07/03 04:03:12;;;;;;;10.20;5.50;;;27.50;99.90;;;;;;4946808;28;20028;-49
2023/07/03 04:05:42;;;;;;;10.90;6.72;;;27.50;99.90;;;;;;4936786;29;20048;-49
2023/07/03 04:08:09;;;;;;;9.35;6.32;;;27.50;99.90;;;;;;4936741;29;20143;-49
2023/07/03 04:10:35;;;;;;;8.45;5.72;;;27.50;99.90;;;;;;4936613;29;20074;-49
2023/07/03 04:13:01;;;;;;;9.93;6.18;;;27.50;99.90;;;;;;4936593;29;20543;-49
2023/07/03 04:15:31;;;;;;;14.38;6.45;;;27.50;99.90;;;;;;4936946;29;20027;-49
2023/07/03 04:17:57;;;;;;;8.90;6.13;;;27.50;99.90;;;;;;4936907;29;20488;-50
2023/07/03 04:20:25;;;;;;;9.02;5.95;;;27.60;99.90;;;;;;4936523;29;20287;-50
2023/07/03 04:22:51;;;;;;;16.98;6.35;;;27.60;99.90;;;;;;4936576;29;20059;-50
2023/07/03 04:25:17;;;;;;;10.63;6.55;;;27.60;99.90;;;;;;4947060;29;20160;-50
2023/07/03 04:27:43;;;;;;;12.68;5.97;;;27.60;99.90;;;;;;4955453;28;20059;-50
2023/07/03 04:30:09;;;;;;;8.55;5.88;;;27.60;99.90;;;;;;4944560;29;20039;-50
2023/07/03 04:32:36;;;;;;;11.45;6.00;;;27.60;99.90;;;;;;4936229;29;20016;-50
2023/07/03 04:35:04;;;;;;;9.57;5.32;;;27.60;99.90;;;;;;4935031;29;20028;-50
2023/07/03 04:37:30;;;;;;;11.10;5.90;;;27.60;99.90;;;;;;4949758;29;20058;-50
2023/07/03 04:39:56;;;;;;;8.15;4.82;;;27.60;99.90;;;;;;4935207;29;20111;-50
2023/07/03 04:42:22;;;;;;;9.85;6.47;;;27.60;99.90;;;;;;4936110;29;20050;-50
2023/07/03 04:44:51;;;;;;;12.15;5.53;;;27.60;99.90;;;;;;4943027;29;20476;-50
2023/07/03 04:47:18;;;;;;;8.98;5.10;;;27.60;99.90;;;;;;4941255;28;20171;-50
2023/07/03 04:49:48;;;;;;;7.38;5.15;;;27.60;99.90;;;;;;4935976;29;20043;-50
2023/07/03 04:52:16;;;;;;;7.78;4.93;;;27.60;99.90;;;;;;4947248;29;20026;-50
2023/07/03 04:54:42;;;;;;;11.60;5.15;;;27.50;99.90;;;;;;4935868;29;20119;-51
2023/07/03 04:57:08;;;;;;;9.20;5.32;;;27.60;99.90;;;;;;4935864;29;20528;-51
2023/07/03 04:59:36;;;;;;;10.63;6.03;;;27.60;99.90;;;;;;4944587;29;20110;-51
2023/07/03 05:02:02;;;;;;;8.63;5.53;;;27.50;99.90;;;;;;4939347;28;20103;-51
2023/07/03 05:04:27;;;;;;;7.88;5.15;;;27.60;99.90;;;;;;4935987;29;20028;-51
2023/07/03 05:06:53;;;;;;;7.75;5.82;;;27.50;99.90;;;;;;4946977;29;20032;-51
2023/07/03 05:09:19;;;;;;;9.15;5.72;;;27.60;99.90;;;;;;4942870;29;20491;-51
2023/07/03 05:11:48;;;;;;;9.50;5.53;;;27.60;99.90;;;;;;4954952;28;20023;-51
2023/07/03 05:14:14;;;;;;;8.73;4.68;;;27.50;99.90;;;;;;4935678;29;20070;-51
2023/07/03 05:16:40;;;;;;;11.13;4.82;;;27.50;99.90;;;;;;4935516;29;20492;-51
2023/07/03 05:19:06;;;;;;;8.27;4.72;;;27.60;99.90;;;;;;4935587;29;20066;-51
2023/07/03 05:21:32;;;;;;;9.63;5.00;;;27.60;99.90;;;;;;4935438;29;20350;-51
2023/07/03 05:23:58;;;;;;;10.35;5.25;;;27.60;99.90;;;;;;4932861;29;20130;-51
2023/07/03 05:26:24;;;;;;;11.82;4.75;;;27.60;99.90;;;;;;4944444;29;20026;-51
2023/07/03 05:28:50;;;;;;;9.93;5.13;;;27.60;99.90;;;;;;4938892;28;20083;-51
2023/07/03 05:31:16;;;;;;;9.40;4.28;;;27.60;99.90;;;;;;4935327;29;20047;-51
2023/07/03 05:33:42;;;;;;;8.02;4.40;;;27.60;99.90;;;;;;4935112;29;20059;-50
2023/07/03 05:36:07;;;;;;;9.98;4.63;;;27.60;99.90;;;;;;4935191;29;20432;-51
2023/07/03 05:38:34;;;;;;;8.63;4.57;;;27.60;99.90;;;;;;4947674;29;20042;-51
2023/07/03 05:41:00;;;;;;;6.57;4.20;;;27.60;99.90;;;;;;4941542;28;20424;-51
2023/07/03 05:43:26;;;;;;;10.55;4.90;;;27.60;99.90;;;;;;4941699;28;20696;-52
2023/07/03 05:45:52;;;;;;;6.75;4.38;;;27.60;99.90;;;;;;4952480;29;20110;-50
2023/07/03 05:48:18;;;;;;;12.05;4.45;;;27.60;99.90;;;;;;4942922;28;20123;-50
2023/07/03 05:50:44;;;;;;;8.35;4.00;;;27.60;99.90;;;;;;4937838;29;20027;-51
2023/07/03 05:53:10;;;;;;;10.43;4.43;;;27.60;99.90;;;;;;4954077;28;20031;-50
2023/07/03 05:55:36;;;;;;;9.85;4.22;;;27.60;99.90;;;;;;4937607;29;20354;-51
2023/07/03 05:58:02;;;;;;;7.45;4.60;;;27.60;99.90;;;;;;4942865;29;20059;-51
2023/07/03 06:00:30;;;;;;;8.25;4.20;;;27.60;99.90;;;;;;4939183;28;20028;-50
2023/07/03 06:02:58;;;;;;;6.65;4.22;;;27.60;99.90;;;;;;4933563;29;20396;-51
2023/07/03 06:05:25;;;;;;;9.05;4.22;;;27.70;99.90;;;;;;4935639;29;20362;-50
2023/07/03 06:07:51;;;;;;;6.47;4.20;;;27.70;99.90;;;;;;4946494;28;20112;-51
2023/07/03 06:10:17;;;;;;;7.95;3.78;;;27.70;99.90;;;;;;4934760;29;20032;-51
2023/07/03 06:12:43;;;;;;;9.23;3.90;;;27.70;99.90;;;;;;4934578;29;20034;-51
2023/07/03 06:15:10;;;;;;;9.95;4.13;;;27.70;99.90;;;;;;4934817;29;20059;-51
2023/07/03 06:17:40;;;;;;;7.68;4.18;;;27.70;99.90;;;;;;4949347;29;20019;-51
2023/07/03 06:20:07;;;;;;;6.07;3.70;;;27.70;99.90;;;;;;4934804;29;20063;-50
2023/07/03 06:22:33;;;;;;;5.70;3.58;;;27.70;99.90;;;;;;4947708;29;20015;-51
2023/07/03 06:24:59;;;;;;;6.22;3.42;;;27.70;99.90;;;;;;4945016;29;20122;-54
2023/07/03 06:27:25;;;;;;;4.20;2.90;;;27.70;99.90;;;;;;4936920;28;20043;-51
2023/07/03 06:29:51;;;;;;;7.97;3.22;;;27.70;99.90;;;;;;4943341;29;20121;-50
2023/07/03 06:32:18;;;;;;;5.18;3.22;;;27.70;99.90;;;;;;4938420;29;20031;-51
2023/07/03 06:34:44;;;;;;;5.20;3.60;;;27.70;99.90;;;;;;4942267;29;20045;-51
2023/07/03 06:37:09;;;;;;;5.70;3.55;;;27.80;99.90;;;;;;4938095;29;20404;-50
2023/07/03 06:39:38;;;;;;;4.93;3.22;;;27.70;99.90;;;;;;4934759;29;20035;-50
2023/07/03 06:42:05;;;;;;;6.93;3.13;;;27.70;99.90;;;;;;4934693;29;20019;-50
2023/07/03 06:44:30;;;;;;;3.97;2.72;;;27.80;99.90;;;;;;4934435;29;20084;-50
2023/07/03 06:46:56;;;;;;;5.28;3.38;;;27.80;99.90;;;;;;4934413;29;20405;-50
2023/07/03 06:49:24;;;;;;;6.78;3.10;;;27.80;99.90;;;;;;4934397;29;20554;-50
2023/07/03 06:51:53;;;;;;;6.40;2.97;;;27.80;99.90;;;;;;4934589;29;20020;-50
2023/07/03 06:54:19;;;;;;;12.93;5.72;;;27.80;99.90;;;;;;4923737;29;20106;-50
2023/07/03 06:56:45;;;;;;;6.53;3.47;;;27.80;99.90;;;;;;4942631;29;20094;-51
2023/07/03 06:59:10;;;;;;;10.20;3.30;;;27.80;99.90;;;;;;4937380;29;20039;-51
2023/07/03 07:01:36;;;;;;;5.90;3.08;;;27.90;99.90;;;;;;4948607;29;20144;-51
2023/07/03 07:04:02;;;;;;;7.88;3.83;;;27.90;99.90;;;;;;4950539;29;20118;-52
2023/07/03 07:06:30;;;;;;;7.82;3.60;;;27.90;99.90;;;;;;4937825;29;20146;-51
2023/07/03 07:08:55;;;;;;;;;;;27.90;99.90;;;;;;4938062;29;20042;-51
2023/07/03 07:11:24;;;;;;;7.28;3.70;;;27.90;99.90;;;;;;4944935;29;20283;-51
2023/07/03 07:13:51;;;;;;;7.57;3.65;;;27.90;99.90;;;;;;4943974;28;20032;-51
2023/07/03 07:16:22;;;;;;;6.18;3.15;;;27.90;99.90;;;;;;4937837;29;20477;-52
2023/07/03 07:18:51;;;;;;;4.78;3.45;;;28.00;99.90;;;;;;4937805;29;20054;-51
2023/07/03 07:21:17;;;;;;;13.27;4.15;;;28.00;99.90;;;;;;4937684;29;20026;-49
2023/07/03 07:23:45;;;;;;;6.60;3.97;;;28.00;99.90;;;;;;4937459;29;20028;-49
2023/07/03 07:26:11;;;;;;;8.80;4.10;;;28.00;99.90;;;;;;4937521;29;20040;-52
2023/07/03 07:28:37;;;;;;;9.73;5.10;;;28.00;99.90;;;;;;4937542;29;20024;-50
2023/07/03 07:31:02;;;;;;;9.45;6.15;;;28.00;99.90;;;;;;4936219;29;20048;-51
2023/07/03 07:33:28;;;;;;;10.95;4.57;;;28.00;99.90;;;;;;4950460;29;20027;-50
2023/07/03 07:35:54;;;;;;;16.77;4.57;;;28.00;99.90;;;;;;4952156;29;20210;-53
2023/07/03 07:38:21;;;;;;;9.35;4.45;;;28.10;99.90;;;;;;4937466;29;20044;-52
2023/07/03 07:40:48;;;;;;;10.52;5.78;;;28.10;99.90;;;;;;4949990;29;20046;-52
2023/07/03 07:43:14;;;;;;;15.93;4.82;;;28.10;99.90;;;;;;4946684;29;20428;-50
2023/07/03 07:45:40;;;;;;;8.90;4.68;;;28.10;99.90;;;;;;4940537;29;20023;-52
2023/07/03 07:48:05;;;;;;;9.10;3.95;;;28.10;99.90;;;;;;4937216;29;20413;-50
2023/07/03 07:50:36;;;;;;;7.95;5.13;;;28.10;99.90;;;;;;4948593;29;20369;-50
2023/07/03 07:53:02;;;;;;;9.60;4.68;;;28.10;99.90;;;;;;4946079;29;20026;-50
2023/07/03 07:55:28;;;;;;;9.02;4.55;;;28.10;99.90;;;;;;4954061;29;20039;-50
2023/07/03 07:57:54;;;;;;;8.10;3.97;;;28.10;99.90;;;;;;4936877;29;20020;-50
2023/07/03 08:00:20;;;;;;;7.22;3.83;;;28.10;99.90;;;;;;4936601;29;20038;-50
2023/07/03 08:02:46;;;;;;;6.13;3.90;;;28.10;99.90;;;;;;4942472;29;20023;-50
2023/07/03 08:05:12;;;;;;;10.40;5.40;;;28.10;99.90;;;;;;4943520;29;20040;-50
2023/07/03 08:07:38;;;;;;;6.93;3.83;;;28.10;99.90;;;;;;4940040;29;20023;-50
2023/07/03 08:10:05;;;;;;;8.77;4.40;;;28.20;99.90;;;;;;4945899;28;20038;-50
2023/07/03 08:12:30;;;;;;;5.80;3.22;;;28.10;99.90;;;;;;4936466;29;20593;-51
2023/07/03 08:14:56;;;;;;;9.90;4.72;;;28.20;99.90;;;;;;4936603;29;20051;-51
2023/07/03 08:17:22;;;;;;;7.03;3.55;;;28.20;99.90;;;;;;4948860;29;20027;-50
2023/07/03 08:19:48;;;;;;;4.28;3.22;;;28.20;99.90;;;;;;4936502;29;20371;-49
2023/07/03 08:22:13;;;;;;;9.60;3.90;;;28.20;99.90;;;;;;4936553;29;20087;-48
2023/07/03 08:24:39;;;;;;;10.18;3.97;;;28.20;99.90;;;;;;4943463;29;20031;-49
2023/07/03 08:27:05;;;;;;;9.70;4.63;;;28.30;99.90;;;;;;4942367;28;20032;-49
2023/07/03 08:29:31;;;;;;;9.77;4.25;;;28.20;99.90;;;;;;4948742;29;20485;-49
2023/07/03 08:31:57;;;;;;;9.68;4.35;;;28.30;99.90;;;;;;4936219;29;20078;-49
2023/07/03 08:34:22;;;;;;;8.07;5.07;;;28.30;99.90;;;;;;4936275;29;20035;-50
2023/07/03 08:36:48;;;;;;;7.97;4.35;;;28.30;99.90;;;;;;4948689;29;20038;-50
2023/07/03 08:39:14;;;;;;;11.35;5.65;;;28.30;99.90;;;;;;4952262;29;20039;-50
2023/07/03 08:41:53;;;;;;;8.07;3.70;;;28.30;99.90;;;;;;4955426;29;20027;-50
2023/07/03 08:44:18;;;;;;;7.45;3.67;;;28.30;99.90;;;;;;4951202;28;20483;-50
2023/07/03 08:46:45;;;;;;;7.45;3.85;;;28.30;99.90;;;;;;4945643;29;20107;-50
2023/07/03 08:49:15;;;;;;;7.03;4.90;;;28.40;99.90;;;;;;4953728;29;20138;-50
2023/07/03 08:51:42;;;;;;;7.55;3.85;;;28.40;99.90;;;;;;4948974;28;20024;-50
2023/07/03 08:54:19;;;;;;;6.07;4.25;;;28.40;99.90;;;;;;4954296;28;20027;-50
2023/07/03 08:56:48;;;;;;;6.30;4.30;;;28.40;99.90;;;;;;4954715;28;20035;-50
2023/07/03 08:59:14;;;;;;;5.82;4.20;;;28.40;99.90;;;;;;4949594;28;20058;-49
2023/07/03 09:01:55;;;;;;;6.82;4.57;;;28.50;99.90;;;;;;4953553;28;20138;-49
2023/07/03 09:04:23;;;;;;;6.32;3.80;;;28.50;99.90;;;;;;4951957;28;20027;-50
2023/07/03 09:07:09;;;;;;;7.82;4.43;;;28.50;99.90;;;;;;4951444;28;20036;-51
2023/07/03 09:09:47;;;;;;;8.40;4.60;;;28.50;99.90;;;;;;4958732;28;20443;-50
2023/07/03 09:12:24;;;;;;;6.97;4.43;;;28.50;99.90;;;;;;4954693;28;20023;-50
2023/07/03 09:15:04;;;;;;;5.68;4.55;;;28.50;99.90;;;;;;4951357;28;20098;-50
2023/07/03 09:17:31;;;;;;;10.60;5.45;;;28.50;99.90;;;;;;4953448;28;20488;-50
2023/07/03 09:19:58;;;;;;;6.85;4.65;;;28.60;99.90;;;;;;4949422;28;20077;-51
2023/07/03 09:22:55;;;;;;;7.70;5.38;;;28.60;99.90;;;;;;4952660;28;20027;-51
2023/07/03 09:25:26;;;;;;;8.13;5.70;;;28.60;99.90;;;;;;4956154;28;20038;-50
2023/07/03 09:27:54;;;;;;;9.25;5.88;;;28.60;99.90;;;;;;4953332;28;20023;-51
2023/07/03 09:30:20;;;;;;;8.38;6.25;;;28.60;99.90;;;;;;4953266;28;20038;-51
2023/07/03 09:32:46;;;;;;;10.82;6.38;;;28.60;99.90;;;;;;4953380;28;20019;-52
2023/07/03 09:35:16;;;;;;;8.10;6.38;;;28.60;99.90;;;;;;4950598;28;20089;-51
2023/07/03 09:37:45;;;;;;;10.02;6.95;;;28.60;99.90;;;;;;4962029;28;20031;-49
2023/07/03 09:40:23;;;;;;;11.60;8.45;;;28.60;99.90;;;;;;4954446;28;20026;-52
2023/07/03 09:42:49;;;;;;;15.27;10.18;;;28.60;99.90;;;;;;4949535;28;20024;-52
2023/07/03 09:45:17;;;;;;;12.38;7.90;;;28.60;99.90;;;;;;4959688;28;20065;-53
2023/07/03 09:47:49;;;;;;;14.43;11.05;;;28.70;99.90;;;;;;4955103;28;20110;-53
2023/07/03 09:50:20;;;;;;;17.17;10.65;;;28.60;99.90;;;;;;4950709;28;20062;-53
2023/07/03 09:52:54;;;;;;;11.57;7.28;;;28.60;99.90;;;;;;4949588;28;20043;-52
2023/07/03 09:55:21;;;;;;;10.32;7.97;;;28.60;99.90;;;;;;4948769;28;20023;-51
2023/07/03 09:57:47;;;;;;;8.13;6.63;;;28.60;99.90;;;;;;4950577;28;20024;-53
2023/07/03 10:00:17;;;;;;;19.20;14.85;;;28.60;99.90;;;;;;4952469;28;20051;-52
2023/07/03 10:02:43;;;;;;;19.35;11.18;;;28.60;99.90;;;;;;4952328;28;20051;-51
2023/07/03 10:05:19;;;;;;;13.43;9.43;;;28.60;99.90;;;;;;4952250;28;20035;-55
2023/07/03 10:07:46;;;;;;;14.80;6.60;;;28.60;99.90;;;;;;4960304;28;20030;-48
2023/07/03 10:10:13;;;;;;;;;;;28.50;99.90;;;;;;4951584;28;20031;-45
2023/07/03 11:16:20;;;;;;;10.10;6.40;;;28.80;99.90;;;;;;5041484;23;20553;-50
2023/07/03 11:19:08;;;;;;;10.90;5.70;;;28.80;99.90;;;;;;4866080;29;20542;-53
2023/07/03 11:21:47;;;;;;;10.55;6.55;;;28.80;99.90;;;;;;4861728;29;20363;-53
2023/07/03 11:24:24;;;;;;;12.35;7.05;;;28.80;99.90;;;;;;4861229;29;20100;-53
2023/07/03 11:26:53;;;;;;;7.40;5.63;;;28.80;99.90;;;;;;4864834;29;20032;-53
2023/07/03 11:29:19;;;;;;;7.97;5.53;;;28.80;99.90;;;;;;4858368;29;20514;-52
2023/07/03 11:31:46;;;;;;;8.32;5.40;;;28.80;99.90;;;;;;4863030;29;20076;-52
2023/07/03 11:34:15;;;;;;;7.23;5.20;;;28.90;99.90;;;;;;4861230;29;20037;-52
2023/07/03 11:36:47;;;;;;;8.55;5.30;;;28.90;99.90;;;;;;4871510;29;20554;-52
2023/07/03 11:39:21;;;;;;;9.60;5.50;;;28.90;99.90;;;;;;4864639;29;20033;-53
2023/07/03 11:42:01;;;;;;;8.77;5.60;;;29.00;99.90;;;;;;4867766;29;20109;-51
2023/07/03 11:44:27;;;;;;;8.50;6.00;;;29.00;99.90;;;;;;4860092;29;20041;-52
2023/07/03 11:47:04;;;;;;;13.35;7.03;;;29.00;99.90;;;;;;4860499;29;20124;-53
2023/07/03 11:49:32;;;;;;;9.52;6.78;;;29.00;99.90;;;;;;4868983;29;20045;-52
2023/07/03 11:52:01;;;;;;;11.02;6.53;;;29.10;99.90;;;;;;4863443;29;20030;-52
2023/07/03 11:54:29;;;;;;;14.82;9.98;;;29.10;99.90;;;;;;4860816;29;20017;-52
2023/07/03 11:57:07;;;;;;;15.40;6.43;;;29.10;99.90;;;;;;4858185;29;20081;-52
2023/07/03 11:59:38;;;;;;;8.32;6.30;;;29.10;99.90;;;;;;4858460;29;20025;-52
2023/07/03 12:02:18;;;;;;;9.43;6.00;;;29.20;99.90;;;;;;4860933;29;20029;-52
2023/07/03 12:04:44;;;;;;;13.35;6.47;;;29.20;99.90;;;;;;4870310;29;20033;-53
2023/07/03 12:07:30;;;;;;;12.63;6.43;;;29.20;99.90;;;;;;4860596;29;20101;-52
2023/07/03 12:10:18;;;;;;;12.00;6.80;;;29.20;99.90;;;;;;4860640;29;20050;-51
2023/07/03 12:13:04;;;;;;;9.95;6.63;;;29.10;99.90;;;;;;4860169;29;20034;-52
2023/07/03 12:15:30;;;;;;;13.68;8.68;;;29.10;99.90;;;;;;4859929;29;20498;-52
2023/07/03 12:18:03;;;;;;;17.27;11.85;;;29.10;99.90;;;;;;4860520;29;20038;-52
2023/07/03 12:20:29;;;;;;;27.42;11.82;;;29.00;99.90;;;;;;4867480;29;20417;-53
2023/07/03 12:22:54;;;;;;;15.88;8.73;;;29.10;99.90;;;;;;4863053;29;20024;-53
2023/07/03 12:25:27;;;;;;;9.75;5.88;;;29.00;99.90;;;;;;4876146;29;20029;-52
2023/07/03 12:28:07;;;;;;;20.83;12.43;;;29.10;99.90;;;;;;4862237;29;20053;-52
2023/07/03 12:30:32;;;;;;;12.20;6.88;;;29.00;99.90;;;;;;4862321;29;20022;-52
2023/07/03 12:33:01;;;;;;;10.50;6.93;;;29.10;99.90;;;;;;4860071;29;20394;-53
2023/07/03 12:35:42;;;;;;;11.02;8.20;;;29.10;99.90;;;;;;4866384;29;20025;-51
2023/07/03 12:38:10;;;;;;;12.93;9.38;;;29.20;99.90;;;;;;4857536;29;20093;-51
2023/07/03 12:40:44;;;;;;;11.85;7.45;;;29.20;99.90;;;;;;4858813;29;20033;-51
2023/07/03 12:43:10;;;;;;;7.68;6.43;;;29.20;99.90;;;;;;4859910;29;20537;-52
2023/07/03 12:45:37;;;;;;;34.63;24.67;;;29.30;99.90;;;;;;4865445;29;20025;-52
2023/07/03 12:48:04;;;;;;;17.75;11.57;;;29.30;99.90;;;;;;4870085;29;20049;-53
2023/07/03 12:50:30;;;;;;;8.98;6.78;;;29.30;99.90;;;;;;4859939;29;20052;-54
2023/07/03 12:53:01;;;;;;;18.92;11.15;;;29.30;99.90;;;;;;4860094;29;20530;-52
2023/07/03 12:55:31;;;;;;;8.88;6.10;;;29.30;99.90;;;;;;4866389;29;20073;-51
2023/07/03 12:57:58;;;;;;;10.10;6.95;;;29.30;99.90;;;;;;4859055;29;20113;-53
2023/07/03 13:00:29;;;;;;;13.25;6.97;;;29.30;99.90;;;;;;4866434;29;20037;-52
2023/07/03 13:03:07;;;;;;;12.00;6.25;;;29.30;99.90;;;;;;4858784;29;20045;-51
2023/07/03 13:05:35;;;;;;;7.60;4.80;;;29.40;99.90;;;;;;4874529;29;20419;-53
2023/07/03 13:08:11;;;;;;;11.93;6.35;;;29.30;99.90;;;;;;4868626;29;20029;-52
2023/07/03 13:10:37;;;;;;;15.00;10.23;;;29.40;99.90;;;;;;4859698;29;20120;-52
2023/07/03 13:13:07;;;;;;;14.88;8.85;;;29.40;99.90;;;;;;4856074;29;20375;-51
2023/07/03 13:15:44;;;;;;;11.57;7.30;;;29.40;99.90;;;;;;4857362;29;20049;-52
2023/07/03 13:18:13;;;;;;;8.27;5.65;;;29.40;99.90;;;;;;4859477;29;20032;-53
2023/07/03 13:21:04;;;;;;;16.25;7.13;;;29.40;99.90;;;;;;4859409;29;20022;-54
2023/07/03 13:23:41;;;;;;;10.98;8.35;;;29.40;99.90;;;;;;4849919;29;20041;-53
2023/07/03 13:26:14;;;;;;;12.13;7.17;;;29.50;99.90;;;;;;4844192;29;20056;-52
2023/07/03 13:29:01;;;;;;;9.68;5.53;;;29.40;99.90;;;;;;4859250;29;20106;-52
2023/07/03 13:31:32;;;;;;;9.52;6.10;;;29.40;99.90;;;;;;4864796;29;20113;-52
2023/07/03 13:34:15;;;;;;;9.35;5.10;;;29.40;99.90;;;;;;4858908;29;20089;-52
2023/07/03 13:36:41;;;;;;;12.13;5.68;;;29.40;99.90;;;;;;4857337;29;20502;-52
2023/07/03 13:39:09;;;;;;;9.10;5.65;;;29.40;99.90;;;;;;4862219;29;20037;-56
2023/07/03 13:41:36;;;;;;;9.52;4.97;;;29.40;99.90;;;;;;4859388;29;20037;-56
2023/07/03 13:44:04;;;;;;;10.02;5.72;;;29.30;99.90;;;;;;4858916;29;20108;-56
2023/07/03 13:46:30;;;;;;;8.88;5.15;;;29.40;99.90;;;;;;4858829;29;20044;-53
2023/07/03 13:48:57;;;;;;;6.85;4.68;;;29.40;99.90;;;;;;4859504;29;20026;-52
2023/07/03 13:51:23;;;;;;;;;;;29.40;99.90;;;;;;4858601;29;20033;-49
2023/07/03 13:53:49;;;;;;;6.65;4.30;;;29.40;99.90;;;;;;4858247;29;19936;-52